Photo de Laille
https://tgftp.nws.noaa.gov/data/observations/metar/stations/LFRN.TXT2019/10/17 01:00 LFRN 170100Z AUTO 15004KT 7000 BKN002 OVC064 11/10 Q1010 TEMPO 3000 BR
Rennes
couvert
Metar : 2019/10/17 01:00 LFRN 170100Z AUTO 15004KT 7000 BKN002 OVC064 11/10 Q1010 TEMPO 3000 BR
Couverture nuageuse : Mostly Cloudy 200 ft Overcast 6400 ft
Pression de 29.83 inHg (1010 hPa)
Humidité : 94%
Température : 52°F (11°C)
Vent de SSE at 5 mph (7 km/h)
Visibilité : 4 miles (7 km)
Nantes
Ciel dégagé
Metar : 2019/10/17 01:00 LFRS 170100Z AUTO VRB02KT CAVOK 13/12 Q1010 TEMPO BKN014
Couverture nuageuse :
Traduc : Partly cloudy 700 ft
Pression de 29.83 inHg (1010 hPa)
Humidité : 94%
Température : 55°F (13°C)
Point de rosée : 54°F (12°C)
Vent de varies at 2 mph (4 km/h)
Visibilité : greater than 7 miles (10 km)
Lannion
couvert
Metar : 2019/10/17 01:00 LFRO 170100Z AUTO 17003KT 9999 FEW042 OVC074 10/09 Q1008
Couverture nuageuse : Few Clouds 4200 ft Overcast 7400 ft
Traduc : Partly cloudy 700 ft
Pression de 29.77 inHg (1008 hPa)
Humidité : 94%
Température : 50°F (10°C)
Point de rosée : 48°F (9°C)
Vent de S at 3 mph (6 km/h)
Visibilité : 6 miles (10 km)
Dinard
Ciel dégagé
Metar : 2019/10/17 01:00 LFRD 170100Z AUTO 20006KT CAVOK 10/09 Q1009 NOSIG
Couverture nuageuse :
Traduc : Partly cloudy 700 ft
Pression de 29.8 inHg (1009 hPa)
Humidité : 94%
Température : 50°F (10°C)
Point de rosée : 48°F (9°C)
Vent de SSW at 7 mph (11 km/h)
Visibilité : greater than 7 miles (10 km)
Brest
nuageux
Metar : 2019/10/17 01:00 LFRB 170100Z AUTO 15007KT 9999 FEW020 SCT048 BKN076 10/09 Q1008 TEMPO 4000 SHRA FEW012CB BKN014TCU
Couverture nuageuse : Few Clouds 2000 ft Partly Cloudy 4800 ft Mostly Cloudy 7600 ft
Traduc : Partly cloudy 700 ft
Pression de 29.77 inHg (1008 hPa)
Humidité : 94%
Température : 50°F (10°C)
Point de rosée : 48°F (9°C)
Vent de SSE at 8 mph (13 km/h)
Visibilité : 6 miles (10 km)
Quimper
couvert
Metar : 2019/10/17 01:00 LFRQ 170100Z AUTO 19005KT 9999 FEW045 SCT062 OVC072 11/10 Q1008
Couverture nuageuse : Few Clouds 4500 ft Partly Cloudy 6200 ft Overcast 7200 ft
Traduc : Partly cloudy 700 ft
Pression de 29.77 inHg (1008 hPa)
Humidité : 94%
Température : 52°F (11°C)
Point de rosée : 50°F (10°C)
Vent de S at 6 mph (9 km/h)
Visibilité : 6 miles (10 km)
St Nazaire
Ciel dégagé
Metar : 2019/10/16 23:00 LFRZ 162300Z AUTO 12001KT CAVOK 12/11 Q1010 TEMPO 0500 FG VV///
Couverture nuageuse :
Traduc : Partly cloudy 700 ft
Pression de 29.83 inHg (1010 hPa)
Humidité : 94%
Température : 54°F (12°C)
Point de rosée : 52°F (11°C)
Vent de ESE at 1 mph (2 km/h)
Visibilité : greater than 7 miles (10 km)
St Brieuc
Ciel dégagé
Metar : 2019/10/16 21:00 LFRT 162100Z AUTO 20004KT 170V250 CAVOK 11/10 Q1008
Couverture nuageuse :
Traduc : Partly cloudy 700 ft
Pression de 29.77 inHg (1008 hPa)
Humidité : 94%
Température : 52°F (11°C)
Point de rosée : 50°F (10°C)
Vent de SSW at 5 mph (7 km/h)
Visibilité : greater than 7 miles (10 km)
Lorient
couvert
Metar : 2019/10/17 01:00 LFRH 170100Z AUTO 19006KT 9999 FEW018 OVC068 12/12 Q1009 TEMPO 3000 BR
Couverture nuageuse : Few Clouds 1800 ft Overcast 6800 ft
Traduc : Partly cloudy 700 ft
Pression de 29.8 inHg (1009 hPa)
Humidité : 100%
Température : 54°F (12°C)
Point de rosée : 54°F (12°C)
Vent de S at 7 mph (11 km/h)
Visibilité : 6 miles (10 km)
Vannes-Meucon
Brume, partiellement nuageux
Metar : 2019/10/17 01:00 LFRV 170100Z AUTO VRB01KT 1400 BR NSC 09/09 Q1009
Couverture nuageuse :
Traduc : Partly cloudy 700 ft
Pression de 29.8 inHg (1009 hPa)
Humidité : 100%
Température : 48°F (9°C)
Point de rosée : 48°F (9°C)
Vent de varies at 1 mph (2 km/h)
Visibilité : 1 mile (1 km)

 


   Weather Underground PWS IBRETAGN39      Weather Underground PWS IBRETAGN39Retour Météo-Laillé adhérent de Météo-Bretagne et d'Infoclimat. Données mises à jour en temps réel via Météolink Climatologie réalisée sous Wswin et GraphWeather.

Affichage prévisions météo de WeatherUnderground via script PHP de Saratoga.

Copyright 2012-2018